Mendota, Minnesota
Current Conditions -  °F | °C
As of 2:53 AM on Friday 19 Dec 2014 (Local Time) from KMSP Reporting Station
Overcast Overcast  
Wind Chill: 15°   Ceiling: 9000
Heat Index: 21°   Visibility: 9mi
Dew Point: 15°   Wind: 5mph
Humidity: 78%   Direction: 130°SE
Pressure: 30.27"   Gusts: NA
Location:  44.89°N, 93.16°W
Report Text: KMSP 190853Z 13004KT 9SM R30L/4000VP6000FT SCT075 OVC090 M06/M09 A3027 RMK AO2 SLP266 T10611094 58003 $
Loading
Personal Weather Stations






























Interactive Weather Map New forecast layout! Learn more

10-Day Weather Forecast

Advertisements
Track Severe Weather on mobile